sensor_id;sensor_type;location;lat;lon;timestamp;temperature;humidity
27506;DHT22;14939;43.596;1.320;2022-12-18T00:03:47;5.90;99.90
27506;DHT22;14939;43.596;1.320;2022-12-18T00:06:13;5.90;99.90
27506;DHT22;14939;43.596;1.320;2022-12-18T00:08:40;5.90;99.90
27506;DHT22;14939;43.596;1.320;2022-12-18T00:11:07;6.00;99.90
27506;DHT22;14939;43.596;1.320;2022-12-18T00:13:34;6.00;99.90
27506;DHT22;14939;43.596;1.320;2022-12-18T00:16:06;6.00;99.90
27506;DHT22;14939;43.596;1.320;2022-12-18T00:18:32;6.00;99.90
27506;DHT22;14939;43.596;1.320;2022-12-18T00:20:59;6.10;99.90
27506;DHT22;14939;43.596;1.320;2022-12-18T00:23:26;6.10;99.90
27506;DHT22;14939;43.596;1.320;2022-12-18T00:25:51;6.10;99.90
27506;DHT22;14939;43.596;1.320;2022-12-18T00:28:17;6.10;99.90
27506;DHT22;14939;43.596;1.320;2022-12-18T00:30:43;6.10;99.90
27506;DHT22;14939;43.596;1.320;2022-12-18T00:33:09;6.20;99.90
27506;DHT22;14939;43.596;1.320;2022-12-18T00:35:34;6.20;99.90
27506;DHT22;14939;43.596;1.320;2022-12-18T00:38:00;6.20;99.90
27506;DHT22;14939;43.596;1.320;2022-12-18T00:40:26;6.20;99.90
27506;DHT22;14939;43.596;1.320;2022-12-18T00:42:51;6.20;99.90
27506;DHT22;14939;43.596;1.320;2022-12-18T00:45:27;6.20;99.90
27506;DHT22;14939;43.596;1.320;2022-12-18T00:47:54;6.20;99.90
27506;DHT22;14939;43.596;1.320;2022-12-18T00:50:20;6.10;99.90
27506;DHT22;14939;43.596;1.320;2022-12-18T00:52:46;6.30;99.90
27506;DHT22;14939;43.596;1.320;2022-12-18T00:55:12;6.30;99.90
27506;DHT22;14939;43.596;1.320;2022-12-18T00:57:38;6.30;99.90
27506;DHT22;14939;43.596;1.320;2022-12-18T01:00:05;6.30;99.90
27506;DHT22;14939;43.596;1.320;2022-12-18T01:02:31;6.30;99.90
27506;DHT22;14939;43.596;1.320;2022-12-18T01:04:57;6.30;99.90
27506;DHT22;14939;43.596;1.320;2022-12-18T01:07:23;6.30;99.90
27506;DHT22;14939;43.596;1.320;2022-12-18T01:09:48;6.30;99.90
27506;DHT22;14939;43.596;1.320;2022-12-18T01:12:14;6.20;99.90
27506;DHT22;14939;43.596;1.320;2022-12-18T01:14:40;6.30;99.90
27506;DHT22;14939;43.596;1.320;2022-12-18T01:17:05;6.30;99.90
27506;DHT22;14939;43.596;1.320;2022-12-18T01:19:31;6.20;99.90
27506;DHT22;14939;43.596;1.320;2022-12-18T01:21:57;6.20;99.90
27506;DHT22;14939;43.596;1.320;2022-12-18T01:24:23;6.20;99.90
27506;DHT22;14939;43.596;1.320;2022-12-18T01:26:49;6.20;99.90
27506;DHT22;14939;43.596;1.320;2022-12-18T01:29:15;6.20;99.90
27506;DHT22;14939;43.596;1.320;2022-12-18T01:31:40;6.20;99.90
27506;DHT22;14939;43.596;1.320;2022-12-18T01:34:06;6.20;99.90
27506;DHT22;14939;43.596;1.320;2022-12-18T01:36:34;6.20;99.90
27506;DHT22;14939;43.596;1.320;2022-12-18T01:39:02;6.10;99.90
27506;DHT22;14939;43.596;1.320;2022-12-18T01:41:30;6.20;99.90
27506;DHT22;14939;43.596;1.320;2022-12-18T01:49:50;6.10;99.90
27506;DHT22;14939;43.596;1.320;2022-12-18T01:52:17;6.10;99.90
27506;DHT22;14939;43.596;1.320;2022-12-18T01:54:44;6.10;99.90
27506;DHT22;14939;43.596;1.320;2022-12-18T01:57:10;6.00;99.90
27506;DHT22;14939;43.596;1.320;2022-12-18T01:59:37;6.00;99.90
27506;DHT22;14939;43.596;1.320;2022-12-18T02:02:04;5.90;99.90
27506;DHT22;14939;43.596;1.320;2022-12-18T02:04:30;5.80;99.90
27506;DHT22;14939;43.596;1.320;2022-12-18T02:07:23;5.70;99.90
27506;DHT22;14939;43.596;1.320;2022-12-18T02:12:51;5.40;99.90
27506;DHT22;14939;43.596;1.320;2022-12-18T02:15:30;5.30;99.90
27506;DHT22;14939;43.596;1.320;2022-12-18T02:18:14;5.20;99.90
27506;DHT22;14939;43.596;1.320;2022-12-18T02:20:49;5.20;99.90
27506;DHT22;14939;43.596;1.320;2022-12-18T02:26:34;5.10;99.90
27506;DHT22;14939;43.596;1.320;2022-12-18T02:29:15;5.10;99.90
27506;DHT22;14939;43.596;1.320;2022-12-18T02:31:51;5.00;99.90
27506;DHT22;14939;43.596;1.320;2022-12-18T02:34:18;4.90;99.90
27506;DHT22;14939;43.596;1.320;2022-12-18T02:36:46;4.80;99.90
27506;DHT22;14939;43.596;1.320;2022-12-18T02:39:14;4.70;99.90
27506;DHT22;14939;43.596;1.320;2022-12-18T02:41:43;4.70;99.90
27506;DHT22;14939;43.596;1.320;2022-12-18T02:44:11;4.60;99.90
27506;DHT22;14939;43.596;1.320;2022-12-18T02:51:54;4.40;99.90
27506;DHT22;14939;43.596;1.320;2022-12-18T02:57:15;4.20;99.90
27506;DHT22;14939;43.596;1.320;2022-12-18T03:00:06;4.20;99.90
27506;DHT22;14939;43.596;1.320;2022-12-18T03:02:45;4.20;99.90
27506;DHT22;14939;43.596;1.320;2022-12-18T03:05:17;4.30;99.90
27506;DHT22;14939;43.596;1.320;2022-12-18T03:08:23;4.30;99.90
27506;DHT22;14939;43.596;1.320;2022-12-18T03:11:01;4.30;99.90
27506;DHT22;14939;43.596;1.320;2022-12-18T03:13:37;4.30;99.90
27506;DHT22;14939;43.596;1.320;2022-12-18T03:16:07;4.20;99.90
27506;DHT22;14939;43.596;1.320;2022-12-18T03:18:56;4.20;99.90
27506;DHT22;14939;43.596;1.320;2022-12-18T03:21:29;4.10;99.90
27506;DHT22;14939;43.596;1.320;2022-12-18T03:23:57;4.10;99.90
27506;DHT22;14939;43.596;1.320;2022-12-18T03:26:25;4.00;99.90
27506;DHT22;14939;43.596;1.320;2022-12-18T03:29:07;4.10;99.90
27506;DHT22;14939;43.596;1.320;2022-12-18T03:31:33;4.10;99.90
27506;DHT22;14939;43.596;1.320;2022-12-18T03:34:05;4.10;99.90
27506;DHT22;14939;43.596;1.320;2022-12-18T03:36:34;4.20;99.90
27506;DHT22;14939;43.596;1.320;2022-12-18T03:39:00;4.20;99.90
27506;DHT22;14939;43.596;1.320;2022-12-18T03:41:43;4.20;99.90
27506;DHT22;14939;43.596;1.320;2022-12-18T03:47:46;4.20;99.90
27506;DHT22;14939;43.596;1.320;2022-12-18T03:50:25;4.20;99.90
27506;DHT22;14939;43.596;1.320;2022-12-18T03:52:57;4.10;99.90
27506;DHT22;14939;43.596;1.320;2022-12-18T03:55:27;4.10;99.90
27506;DHT22;14939;43.596;1.320;2022-12-18T03:57:56;4.10;99.90
27506;DHT22;14939;43.596;1.320;2022-12-18T04:00:22;4.00;99.90
27506;DHT22;14939;43.596;1.320;2022-12-18T04:02:53;3.90;99.90
27506;DHT22;14939;43.596;1.320;2022-12-18T04:05:21;3.80;99.90
27506;DHT22;14939;43.596;1.320;2022-12-18T04:07:49;3.80;99.90
27506;DHT22;14939;43.596;1.320;2022-12-18T04:10:17;3.80;99.90
27506;DHT22;14939;43.596;1.320;2022-12-18T04:12:43;3.70;99.90
27506;DHT22;14939;43.596;1.320;2022-12-18T04:15:10;3.70;99.90
27506;DHT22;14939;43.596;1.320;2022-12-18T04:17:36;3.80;99.90
27506;DHT22;14939;43.596;1.320;2022-12-18T04:20:03;3.70;99.90
27506;DHT22;14939;43.596;1.320;2022-12-18T04:22:28;3.70;99.90
27506;DHT22;14939;43.596;1.320;2022-12-18T04:24:54;3.70;99.90
27506;DHT22;14939;43.596;1.320;2022-12-18T04:27:20;3.70;99.90
27506;DHT22;14939;43.596;1.320;2022-12-18T04:29:46;3.60;99.90
27506;DHT22;14939;43.596;1.320;2022-12-18T04:32:11;3.60;99.90
27506;DHT22;14939;43.596;1.320;2022-12-18T04:34:37;3.60;99.90
27506;DHT22;14939;43.596;1.320;2022-12-18T04:37:03;3.60;99.90
27506;DHT22;14939;43.596;1.320;2022-12-18T04:39:29;3.50;99.90
27506;DHT22;14939;43.596;1.320;2022-12-18T04:41:55;3.40;99.90
27506;DHT22;14939;43.596;1.320;2022-12-18T04:44:20;3.40;99.90
27506;DHT22;14939;43.596;1.320;2022-12-18T04:46:46;3.40;99.90
27506;DHT22;14939;43.596;1.320;2022-12-18T04:49:12;3.40;99.90
27506;DHT22;14939;43.596;1.320;2022-12-18T04:51:38;3.30;99.90
27506;DHT22;14939;43.596;1.320;2022-12-18T04:54:03;3.30;99.90
27506;DHT22;14939;43.596;1.320;2022-12-18T04:56:31;3.20;99.90
27506;DHT22;14939;43.596;1.320;2022-12-18T04:58:57;3.10;99.90
27506;DHT22;14939;43.596;1.320;2022-12-18T05:01:23;3.20;99.90
27506;DHT22;14939;43.596;1.320;2022-12-18T05:03:50;3.10;99.90
27506;DHT22;14939;43.596;1.320;2022-12-18T05:06:16;3.10;99.90
27506;DHT22;14939;43.596;1.320;2022-12-18T05:08:45;3.10;99.90
27506;DHT22;14939;43.596;1.320;2022-12-18T05:11:15;3.00;99.90
27506;DHT22;14939;43.596;1.320;2022-12-18T05:13:42;3.10;99.90
27506;DHT22;14939;43.596;1.320;2022-12-18T05:16:08;3.10;99.90
27506;DHT22;14939;43.596;1.320;2022-12-18T05:18:34;3.00;99.90
27506;DHT22;14939;43.596;1.320;2022-12-18T05:21:00;3.00;99.90
27506;DHT22;14939;43.596;1.320;2022-12-18T05:23:26;3.00;99.90
27506;DHT22;14939;43.596;1.320;2022-12-18T05:25:53;3.00;99.90
27506;DHT22;14939;43.596;1.320;2022-12-18T05:28:20;3.10;99.90
27506;DHT22;14939;43.596;1.320;2022-12-18T05:30:54;3.00;99.90
27506;DHT22;14939;43.596;1.320;2022-12-18T05:33:22;3.00;99.90
27506;DHT22;14939;43.596;1.320;2022-12-18T05:35:56;2.90;99.90
27506;DHT22;14939;43.596;1.320;2022-12-18T05:38:23;2.90;99.90
27506;DHT22;14939;43.596;1.320;2022-12-18T05:40:49;2.80;99.90
27506;DHT22;14939;43.596;1.320;2022-12-18T05:43:15;2.80;99.90
27506;DHT22;14939;43.596;1.320;2022-12-18T05:45:42;2.80;99.90
27506;DHT22;14939;43.596;1.320;2022-12-18T05:48:08;2.80;99.90
27506;DHT22;14939;43.596;1.320;2022-12-18T05:50:40;2.70;99.90
27506;DHT22;14939;43.596;1.320;2022-12-18T05:53:07;2.70;99.90
27506;DHT22;14939;43.596;1.320;2022-12-18T05:55:34;2.60;99.90
27506;DHT22;14939;43.596;1.320;2022-12-18T05:58:00;2.70;99.90
27506;DHT22;14939;43.596;1.320;2022-12-18T06:00:27;2.70;99.90
27506;DHT22;14939;43.596;1.320;2022-12-18T06:02:52;2.70;99.90
27506;DHT22;14939;43.596;1.320;2022-12-18T06:05:18;2.60;99.90
27506;DHT22;14939;43.596;1.320;2022-12-18T06:07:44;2.60;99.90
27506;DHT22;14939;43.596;1.320;2022-12-18T06:10:10;2.50;99.90
27506;DHT22;14939;43.596;1.320;2022-12-18T06:12:36;2.50;99.90
27506;DHT22;14939;43.596;1.320;2022-12-18T06:15:02;2.50;99.90
27506;DHT22;14939;43.596;1.320;2022-12-18T06:17:31;2.50;99.90
27506;DHT22;14939;43.596;1.320;2022-12-18T06:19:58;2.50;99.90
27506;DHT22;14939;43.596;1.320;2022-12-18T06:22:24;2.50;99.90
27506;DHT22;14939;43.596;1.320;2022-12-18T06:24:50;2.60;99.90
27506;DHT22;14939;43.596;1.320;2022-12-18T06:27:16;2.50;99.90
27506;DHT22;14939;43.596;1.320;2022-12-18T06:29:42;2.50;99.90
27506;DHT22;14939;43.596;1.320;2022-12-18T06:32:07;2.50;99.90
27506;DHT22;14939;43.596;1.320;2022-12-18T06:34:34;2.50;99.90
27506;DHT22;14939;43.596;1.320;2022-12-18T06:37:00;2.50;99.90
27506;DHT22;14939;43.596;1.320;2022-12-18T06:39:28;2.40;99.90
27506;DHT22;14939;43.596;1.320;2022-12-18T06:41:54;2.40;99.90
27506;DHT22;14939;43.596;1.320;2022-12-18T06:44:20;2.40;99.90
27506;DHT22;14939;43.596;1.320;2022-12-18T06:46:46;2.40;99.90
27506;DHT22;14939;43.596;1.320;2022-12-18T06:49:11;2.40;99.90
27506;DHT22;14939;43.596;1.320;2022-12-18T06:51:37;2.30;99.90
27506;DHT22;14939;43.596;1.320;2022-12-18T06:57:16;2.40;99.90
27506;DHT22;14939;43.596;1.320;2022-12-18T06:59:41;2.40;99.90
27506;DHT22;14939;43.596;1.320;2022-12-18T07:02:11;2.30;99.90
27506;DHT22;14939;43.596;1.320;2022-12-18T07:04:37;2.30;99.90
27506;DHT22;14939;43.596;1.320;2022-12-18T07:07:03;2.30;99.90
27506;DHT22;14939;43.596;1.320;2022-12-18T07:09:28;2.30;99.90
27506;DHT22;14939;43.596;1.320;2022-12-18T07:11:54;2.30;99.90
27506;DHT22;14939;43.596;1.320;2022-12-18T07:14:20;2.30;99.90
27506;DHT22;14939;43.596;1.320;2022-12-18T07:16:46;2.30;99.90
27506;DHT22;14939;43.596;1.320;2022-12-18T07:19:12;2.30;99.90
27506;DHT22;14939;43.596;1.320;2022-12-18T07:21:38;2.20;99.90
27506;DHT22;14939;43.596;1.320;2022-12-18T07:24:04;2.30;99.90
27506;DHT22;14939;43.596;1.320;2022-12-18T07:26:29;2.30;99.90
27506;DHT22;14939;43.596;1.320;2022-12-18T07:28:57;2.40;99.90
27506;DHT22;14939;43.596;1.320;2022-12-18T07:31:24;2.40;99.90
27506;DHT22;14939;43.596;1.320;2022-12-18T07:33:51;2.40;99.90
27506;DHT22;14939;43.596;1.320;2022-12-18T07:36:17;2.50;99.90
27506;DHT22;14939;43.596;1.320;2022-12-18T07:38:43;2.50;99.90
27506;DHT22;14939;43.596;1.320;2022-12-18T07:41:12;2.60;99.90
27506;DHT22;14939;43.596;1.320;2022-12-18T07:43:39;2.80;99.90
27506;DHT22;14939;43.596;1.320;2022-12-18T07:46:05;2.90;99.90
27506;DHT22;14939;43.596;1.320;2022-12-18T07:48:31;3.00;99.90
27506;DHT22;14939;43.596;1.320;2022-12-18T07:51:05;3.10;99.90
27506;DHT22;14939;43.596;1.320;2022-12-18T07:53:32;3.20;99.90
27506;DHT22;14939;43.596;1.320;2022-12-18T07:56:00;3.20;99.90
27506;DHT22;14939;43.596;1.320;2022-12-18T07:58:26;3.30;99.90
27506;DHT22;14939;43.596;1.320;2022-12-18T08:00:52;3.40;99.90
27506;DHT22;14939;43.596;1.320;2022-12-18T08:03:19;3.40;99.90
27506;DHT22;14939;43.596;1.320;2022-12-18T08:05:44;3.50;99.90
27506;DHT22;14939;43.596;1.320;2022-12-18T08:08:10;3.70;99.90
27506;DHT22;14939;43.596;1.320;2022-12-18T08:10:37;3.90;99.90
27506;DHT22;14939;43.596;1.320;2022-12-18T08:13:03;4.00;99.90
27506;DHT22;14939;43.596;1.320;2022-12-18T08:15:28;4.10;99.90
27506;DHT22;14939;43.596;1.320;2022-12-18T08:17:57;4.10;99.90
27506;DHT22;14939;43.596;1.320;2022-12-18T08:20:22;4.30;99.90
27506;DHT22;14939;43.596;1.320;2022-12-18T08:22:48;4.40;99.90
27506;DHT22;14939;43.596;1.320;2022-12-18T08:25:14;4.60;99.90
27506;DHT22;14939;43.596;1.320;2022-12-18T08:27:40;4.90;99.90
27506;DHT22;14939;43.596;1.320;2022-12-18T08:30:06;5.00;99.90
27506;DHT22;14939;43.596;1.320;2022-12-18T08:32:32;5.10;99.90
27506;DHT22;14939;43.596;1.320;2022-12-18T08:34:58;5.30;99.90
27506;DHT22;14939;43.596;1.320;2022-12-18T08:37:24;5.40;99.90
27506;DHT22;14939;43.596;1.320;2022-12-18T08:39:50;5.50;99.90
27506;DHT22;14939;43.596;1.320;2022-12-18T08:42:16;5.60;99.90
27506;DHT22;14939;43.596;1.320;2022-12-18T08:45:01;5.60;99.90
27506;DHT22;14939;43.596;1.320;2022-12-18T08:47:26;5.90;99.90
27506;DHT22;14939;43.596;1.320;2022-12-18T08:49:52;6.00;99.90
27506;DHT22;14939;43.596;1.320;2022-12-18T08:52:18;6.00;99.90
27506;DHT22;14939;43.596;1.320;2022-12-18T08:54:44;6.00;99.90
27506;DHT22;14939;43.596;1.320;2022-12-18T08:57:09;6.10;99.90
27506;DHT22;14939;43.596;1.320;2022-12-18T08:59:35;6.20;99.90
27506;DHT22;14939;43.596;1.320;2022-12-18T09:02:01;6.30;99.90
27506;DHT22;14939;43.596;1.320;2022-12-18T09:04:26;6.40;99.90
27506;DHT22;14939;43.596;1.320;2022-12-18T09:06:52;6.50;99.90
27506;DHT22;14939;43.596;1.320;2022-12-18T09:09:21;6.50;99.90
27506;DHT22;14939;43.596;1.320;2022-12-18T09:11:48;6.60;99.90
27506;DHT22;14939;43.596;1.320;2022-12-18T09:14:32;6.70;99.90
27506;DHT22;14939;43.596;1.320;2022-12-18T09:17:07;6.70;99.90
27506;DHT22;14939;43.596;1.320;2022-12-18T09:19:33;6.70;99.90
27506;DHT22;14939;43.596;1.320;2022-12-18T09:21:59;6.80;99.90
27506;DHT22;14939;43.596;1.320;2022-12-18T09:24:27;6.90;99.90
27506;DHT22;14939;43.596;1.320;2022-12-18T09:26:56;6.90;99.90
27506;DHT22;14939;43.596;1.320;2022-12-18T09:29:21;7.00;99.90
27506;DHT22;14939;43.596;1.320;2022-12-18T09:31:47;7.00;99.90
27506;DHT22;14939;43.596;1.320;2022-12-18T09:34:13;7.10;99.90
27506;DHT22;14939;43.596;1.320;2022-12-18T09:36:39;7.20;99.90
27506;DHT22;14939;43.596;1.320;2022-12-18T09:39:04;7.20;99.90
27506;DHT22;14939;43.596;1.320;2022-12-18T09:41:50;7.30;99.90
27506;DHT22;14939;43.596;1.320;2022-12-18T09:44:26;7.40;99.90
27506;DHT22;14939;43.596;1.320;2022-12-18T09:47:12;7.40;99.90
27506;DHT22;14939;43.596;1.320;2022-12-18T09:49:45;7.50;99.90
27506;DHT22;14939;43.596;1.320;2022-12-18T09:55:22;7.70;99.90
27506;DHT22;14939;43.596;1.320;2022-12-18T09:57:55;7.80;99.90
27506;DHT22;14939;43.596;1.320;2022-12-18T10:00:23;7.90;99.90
27506;DHT22;14939;43.596;1.320;2022-12-18T10:02:53;8.00;99.90
27506;DHT22;14939;43.596;1.320;2022-12-18T10:08:22;8.20;99.90
27506;DHT22;14939;43.596;1.320;2022-12-18T10:10:53;8.30;99.90
27506;DHT22;14939;43.596;1.320;2022-12-18T10:13:31;8.40;99.90
27506;DHT22;14939;43.596;1.320;2022-12-18T10:16:17;8.40;99.90
27506;DHT22;14939;43.596;1.320;2022-12-18T10:21:35;8.60;99.90
27506;DHT22;14939;43.596;1.320;2022-12-18T10:24:39;8.70;99.90
27506;DHT22;14939;43.596;1.320;2022-12-18T10:27:18;8.70;99.90
27506;DHT22;14939;43.596;1.320;2022-12-18T10:29:45;8.80;99.90
27506;DHT22;14939;43.596;1.320;2022-12-18T10:32:25;8.80;99.90
27506;DHT22;14939;43.596;1.320;2022-12-18T10:34:54;8.80;99.90
27506;DHT22;14939;43.596;1.320;2022-12-18T10:37:22;8.90;99.90
27506;DHT22;14939;43.596;1.320;2022-12-18T10:40:07;8.90;99.90
27506;DHT22;14939;43.596;1.320;2022-12-18T10:42:33;8.90;99.90
27506;DHT22;14939;43.596;1.320;2022-12-18T10:45:10;8.90;99.90
27506;DHT22;14939;43.596;1.320;2022-12-18T10:47:45;9.00;99.90
27506;DHT22;14939;43.596;1.320;2022-12-18T10:50:32;9.00;99.90
27506;DHT22;14939;43.596;1.320;2022-12-18T10:53:00;9.00;99.90
27506;DHT22;14939;43.596;1.320;2022-12-18T10:55:35;9.00;99.90
27506;DHT22;14939;43.596;1.320;2022-12-18T10:58:34;9.10;99.90
27506;DHT22;14939;43.596;1.320;2022-12-18T11:01:15;9.10;99.90
27506;DHT22;14939;43.596;1.320;2022-12-18T11:03:43;9.10;99.90
27506;DHT22;14939;43.596;1.320;2022-12-18T11:06:18;9.10;99.90
27506;DHT22;14939;43.596;1.320;2022-12-18T11:09:17;9.10;99.90
27506;DHT22;14939;43.596;1.320;2022-12-18T11:11:54;9.10;99.90
27506;DHT22;14939;43.596;1.320;2022-12-18T11:17:19;9.10;99.90
27506;DHT22;14939;43.596;1.320;2022-12-18T11:19:55;9.10;99.90
27506;DHT22;14939;43.596;1.320;2022-12-18T11:22:33;9.10;99.90
27506;DHT22;14939;43.596;1.320;2022-12-18T11:27:38;9.10;99.90
27506;DHT22;14939;43.596;1.320;2022-12-18T11:35:58;9.10;99.90
27506;DHT22;14939;43.596;1.320;2022-12-18T11:38:36;9.20;99.90
27506;DHT22;14939;43.596;1.320;2022-12-18T11:46:37;9.30;99.90
27506;DHT22;14939;43.596;1.320;2022-12-18T11:49:14;9.40;99.90
27506;DHT22;14939;43.596;1.320;2022-12-18T11:54:40;9.50;99.90
27506;DHT22;14939;43.596;1.320;2022-12-18T12:02:46;9.60;99.90
27506;DHT22;14939;43.596;1.320;2022-12-18T12:11:07;9.60;99.90
27506;DHT22;14939;43.596;1.320;2022-12-18T12:16:25;9.60;99.90
27506;DHT22;14939;43.596;1.320;2022-12-18T12:30:35;9.80;99.90
27506;DHT22;14939;43.596;1.320;2022-12-18T12:35:49;9.90;99.90
27506;DHT22;14939;43.596;1.320;2022-12-18T12:38:37;9.90;99.90
27506;DHT22;14939;43.596;1.320;2022-12-18T12:41:08;10.00;99.90
27506;DHT22;14939;43.596;1.320;2022-12-18T12:43:57;10.10;99.90
27506;DHT22;14939;43.596;1.320;2022-12-18T12:46:24;10.00;99.90
27506;DHT22;14939;43.596;1.320;2022-12-18T12:49:09;10.00;99.90
27506;DHT22;14939;43.596;1.320;2022-12-18T12:51:37;10.00;99.90
27506;DHT22;14939;43.596;1.320;2022-12-18T12:54:11;10.00;99.90
27506;DHT22;14939;43.596;1.320;2022-12-18T12:56:59;10.00;99.90
27506;DHT22;14939;43.596;1.320;2022-12-18T12:59:49;10.00;99.90
27506;DHT22;14939;43.596;1.320;2022-12-18T13:05:09;9.80;99.90
27506;DHT22;14939;43.596;1.320;2022-12-18T13:13:04;10.00;99.90
27506;DHT22;14939;43.596;1.320;2022-12-18T13:15:39;9.90;99.90
27506;DHT22;14939;43.596;1.320;2022-12-18T13:20:50;9.90;99.90
27506;DHT22;14939;43.596;1.320;2022-12-18T13:34:24;9.80;99.90
27506;DHT22;14939;43.596;1.320;2022-12-18T13:36:53;9.90;99.90
27506;DHT22;14939;43.596;1.320;2022-12-18T13:44:38;10.20;99.90
27506;DHT22;14939;43.596;1.320;2022-12-18T13:47:32;10.20;99.90
27506;DHT22;14939;43.596;1.320;2022-12-18T13:49:59;10.30;99.90
27506;DHT22;14939;43.596;1.320;2022-12-18T13:52:36;10.30;99.90
27506;DHT22;14939;43.596;1.320;2022-12-18T13:55:07;10.40;99.90
27506;DHT22;14939;43.596;1.320;2022-12-18T13:57:37;10.50;99.90
27506;DHT22;14939;43.596;1.320;2022-12-18T14:00:36;10.60;99.90
27506;DHT22;14939;43.596;1.320;2022-12-18T14:03:23;10.50;99.90
27506;DHT22;14939;43.596;1.320;2022-12-18T14:06:03;10.50;99.90
27506;DHT22;14939;43.596;1.320;2022-12-18T14:08:38;10.50;99.90
27506;DHT22;14939;43.596;1.320;2022-12-18T14:11:05;10.50;99.90
27506;DHT22;14939;43.596;1.320;2022-12-18T14:13:37;10.60;99.90
27506;DHT22;14939;43.596;1.320;2022-12-18T14:16:06;10.60;99.90
27506;DHT22;14939;43.596;1.320;2022-12-18T14:18:57;10.60;99.90
27506;DHT22;14939;43.596;1.320;2022-12-18T14:21:28;10.60;99.90
27506;DHT22;14939;43.596;1.320;2022-12-18T14:26:33;10.60;99.90
27506;DHT22;14939;43.596;1.320;2022-12-18T14:29:16;10.70;99.90
27506;DHT22;14939;43.596;1.320;2022-12-18T14:31:43;10.60;99.90
27506;DHT22;14939;43.596;1.320;2022-12-18T14:34:17;10.60;99.90
27506;DHT22;14939;43.596;1.320;2022-12-18T14:36:53;10.60;99.90
27506;DHT22;14939;43.596;1.320;2022-12-18T14:39:21;10.60;99.90
27506;DHT22;14939;43.596;1.320;2022-12-18T14:41:48;10.60;99.90
27506;DHT22;14939;43.596;1.320;2022-12-18T14:44:15;10.60;99.90
27506;DHT22;14939;43.596;1.320;2022-12-18T14:46:46;10.60;99.90
27506;DHT22;14939;43.596;1.320;2022-12-18T14:49:33;10.60;99.90
27506;DHT22;14939;43.596;1.320;2022-12-18T14:52:01;10.60;99.90
27506;DHT22;14939;43.596;1.320;2022-12-18T14:54:28;10.60;99.90
27506;DHT22;14939;43.596;1.320;2022-12-18T14:57:02;10.50;99.90
27506;DHT22;14939;43.596;1.320;2022-12-18T14:59:29;10.40;99.90
27506;DHT22;14939;43.596;1.320;2022-12-18T15:02:22;10.40;99.90
27506;DHT22;14939;43.596;1.320;2022-12-18T15:05:04;10.40;99.90
27506;DHT22;14939;43.596;1.320;2022-12-18T15:07:44;10.40;99.90
27506;DHT22;14939;43.596;1.320;2022-12-18T15:20:56;10.30;99.90
27506;DHT22;14939;43.596;1.320;2022-12-18T15:24:13;10.20;99.90
27506;DHT22;14939;43.596;1.320;2022-12-18T15:26:19;10.20;99.90
27506;DHT22;14939;43.596;1.320;2022-12-18T15:28:50;10.10;99.90
27506;DHT22;14939;43.596;1.320;2022-12-18T15:34:00;10.00;99.90
27506;DHT22;14939;43.596;1.320;2022-12-18T15:36:29;10.00;99.90
27506;DHT22;14939;43.596;1.320;2022-12-18T15:38:56;9.90;99.90
27506;DHT22;14939;43.596;1.320;2022-12-18T15:41:23;9.90;99.90
27506;DHT22;14939;43.596;1.320;2022-12-18T15:43:50;9.90;99.90
27506;DHT22;14939;43.596;1.320;2022-12-18T15:46:21;9.90;99.90
27506;DHT22;14939;43.596;1.320;2022-12-18T15:48:53;9.80;99.90
27506;DHT22;14939;43.596;1.320;2022-12-18T15:51:31;9.80;99.90
27506;DHT22;14939;43.596;1.320;2022-12-18T15:54:03;9.80;99.90
27506;DHT22;14939;43.596;1.320;2022-12-18T15:56:30;9.70;99.90
27506;DHT22;14939;43.596;1.320;2022-12-18T15:59:17;9.60;99.90
27506;DHT22;14939;43.596;1.320;2022-12-18T16:01:46;9.60;99.90
27506;DHT22;14939;43.596;1.320;2022-12-18T16:04:13;9.60;99.90
27506;DHT22;14939;43.596;1.320;2022-12-18T16:06:39;9.50;99.90
27506;DHT22;14939;43.596;1.320;2022-12-18T16:09:05;9.40;99.90
27506;DHT22;14939;43.596;1.320;2022-12-18T16:11:33;9.40;99.90
27506;DHT22;14939;43.596;1.320;2022-12-18T16:14:23;9.40;99.90
27506;DHT22;14939;43.596;1.320;2022-12-18T16:16:51;9.30;99.90
27506;DHT22;14939;43.596;1.320;2022-12-18T16:19:18;9.20;99.90
27506;DHT22;14939;43.596;1.320;2022-12-18T16:21:45;9.20;99.90
27506;DHT22;14939;43.596;1.320;2022-12-18T16:24:21;9.10;99.90
27506;DHT22;14939;43.596;1.320;2022-12-18T16:26:48;9.10;99.90
27506;DHT22;14939;43.596;1.320;2022-12-18T16:29:15;9.10;99.90
27506;DHT22;14939;43.596;1.320;2022-12-18T16:31:41;9.10;99.90
27506;DHT22;14939;43.596;1.320;2022-12-18T16:34:28;9.10;99.90
27506;DHT22;14939;43.596;1.320;2022-12-18T16:36:56;9.10;99.90
27506;DHT22;14939;43.596;1.320;2022-12-18T16:39:22;9.10;99.90
27506;DHT22;14939;43.596;1.320;2022-12-18T16:41:48;9.10;99.90
27506;DHT22;14939;43.596;1.320;2022-12-18T16:44:14;9.10;99.90
27506;DHT22;14939;43.596;1.320;2022-12-18T16:46:40;9.20;99.90
27506;DHT22;14939;43.596;1.320;2022-12-18T16:49:12;9.20;99.90
27506;DHT22;14939;43.596;1.320;2022-12-18T16:51:38;9.20;99.90
27506;DHT22;14939;43.596;1.320;2022-12-18T16:54:04;9.30;99.90
27506;DHT22;14939;43.596;1.320;2022-12-18T16:56:30;9.30;99.90
27506;DHT22;14939;43.596;1.320;2022-12-18T16:58:58;9.30;99.90
27506;DHT22;14939;43.596;1.320;2022-12-18T17:01:26;9.20;99.90
27506;DHT22;14939;43.596;1.320;2022-12-18T17:04:02;9.30;99.90
27506;DHT22;14939;43.596;1.320;2022-12-18T17:06:31;9.30;99.90
27506;DHT22;14939;43.596;1.320;2022-12-18T17:08:59;9.30;99.90
27506;DHT22;14939;43.596;1.320;2022-12-18T17:11:26;9.30;99.90
27506;DHT22;14939;43.596;1.320;2022-12-18T17:13:52;9.30;99.90
27506;DHT22;14939;43.596;1.320;2022-12-18T17:16:18;9.30;99.90
27506;DHT22;14939;43.596;1.320;2022-12-18T17:18:44;9.30;99.90
27506;DHT22;14939;43.596;1.320;2022-12-18T17:21:10;9.30;99.90
27506;DHT22;14939;43.596;1.320;2022-12-18T17:23:39;9.40;99.90
27506;DHT22;14939;43.596;1.320;2022-12-18T17:26:05;9.60;99.90
27506;DHT22;14939;43.596;1.320;2022-12-18T17:28:33;9.60;99.90
27506;DHT22;14939;43.596;1.320;2022-12-18T17:30:59;9.70;99.90
27506;DHT22;14939;43.596;1.320;2022-12-18T17:33:25;9.80;99.90
27506;DHT22;14939;43.596;1.320;2022-12-18T17:35:51;9.80;99.90
27506;DHT22;14939;43.596;1.320;2022-12-18T17:38:17;9.90;99.90
27506;DHT22;14939;43.596;1.320;2022-12-18T17:40:43;10.00;99.90
27506;DHT22;14939;43.596;1.320;2022-12-18T17:43:10;10.10;99.90
27506;DHT22;14939;43.596;1.320;2022-12-18T17:45:39;10.10;99.90
27506;DHT22;14939;43.596;1.320;2022-12-18T17:48:05;10.20;99.90
27506;DHT22;14939;43.596;1.320;2022-12-18T17:50:33;10.20;99.90
27506;DHT22;14939;43.596;1.320;2022-12-18T17:52:59;10.20;99.90
27506;DHT22;14939;43.596;1.320;2022-12-18T17:55:25;10.20;99.90
27506;DHT22;14939;43.596;1.320;2022-12-18T17:57:51;10.30;99.90
27506;DHT22;14939;43.596;1.320;2022-12-18T18:00:18;10.30;99.90
27506;DHT22;14939;43.596;1.320;2022-12-18T18:02:44;10.30;99.90
27506;DHT22;14939;43.596;1.320;2022-12-18T18:05:11;10.30;99.90
27506;DHT22;14939;43.596;1.320;2022-12-18T18:07:37;10.30;99.90
27506;DHT22;14939;43.596;1.320;2022-12-18T18:10:04;10.20;99.90